Pagrindinis puslapis
METAR-TAF:

METAR-TAF

Oro uostai :

Amanas, Jordanija

platuma: 31-59N, ilguma: 035-59E, Aukštis: 767 m

Dabartinis oras

Ataskaita buvo paskelbta 37 minutes, ne 04:00 UTC
Vėjas 5 kt iš Vakarų
Temperatūra 7°C
Drėgmė 100%
Slėgis 1016 hPa
Matomumas: 3000 m
Išsisklaidę debesys ne aukštis 1200 ft
Su prošvaistėmis ne aukštis 3000 ft
lietus

METAR: OJAM 220400Z 28005KT 3000 RA SCT012 BKN030 07/07 Q1016 NOSIG

Laikas: 06:37 (04:37 UTC)

Prognozė

Ataskaita buvo paskelbta 6 valandos ir 14 minutes, ne 22:23 UTC
Prognozė galioja nuo 22 metu 00 UTC su 23 metu 06 UTC
Vėjas 10 kt iš Pietvakarių
Matomumas: 5000 m
Išsisklaidę debesys ne aukštis 2500 ft
Su prošvaistėmis ne aukštis 3000 ft
migla
Laikinai
nuo 22 metu 00 UTC su 22 metu 12 UTC
Vėjas 16 kt iš Vakarų
Matomumas: 3000 m
Išsisklaidę debesys ne aukštis 2500 ft, aukštai iškilę kamuoliniai debesys.
Su prošvaistėmis ne aukštis 3000 ft
lietus, rūkana

TAF: OJAM 212223Z 2200/2306 23010KT 5000 HZ SCT025 BKN030 TEMPO 2200/2212 28016KT 3000 RA BR SCT025TCU BKN030

Orai ataskaitas ir orų prognozės (METAR, TAF).

turimą stotys yra geltonos ir raudonos taškus žemėlapyje.

Perkelti pele per norėdami pamatyti stoties vardą.

Tada spustelėkite, norėdami matyti oro stebėjimo ir prognozės.

Norėdami pakeisti žemėlapį: spustelėkite ant žalios mygtukų su juodo kryžiaus žemyn,; žalią mygtuką su brūkšneliu, jei norite nutolinti; arba žalių rodyklių gretimoms žemėlapius.


METAR-TAF: